sensor_id;sensor_type;location;lat;lon;timestamp;P1;durP1;ratioP1;P2;durP2;ratioP2
37785;SDS011;23625;48.784;9.336;2023-03-01T00:02:18;32.72;;;12.77;;
37785;SDS011;23625;48.784;9.336;2023-03-01T00:04:44;42.63;;;14.40;;
37785;SDS011;23625;48.784;9.336;2023-03-01T00:07:10;37.58;;;14.15;;
37785;SDS011;23625;48.784;9.336;2023-03-01T00:09:36;34.20;;;13.30;;
37785;SDS011;23625;48.784;9.336;2023-03-01T00:12:02;30.90;;;12.50;;
37785;SDS011;23625;48.784;9.336;2023-03-01T00:14:28;32.25;;;13.07;;
37785;SDS011;23625;48.784;9.336;2023-03-01T00:16:53;29.92;;;13.57;;
37785;SDS011;23625;48.784;9.336;2023-03-01T00:19:19;32.08;;;13.77;;
37785;SDS011;23625;48.784;9.336;2023-03-01T00:21:47;37.70;;;15.07;;
37785;SDS011;23625;48.784;9.336;2023-03-01T00:24:13;37.15;;;13.50;;
37785;SDS011;23625;48.784;9.336;2023-03-01T00:26:38;32.63;;;13.90;;
37785;SDS011;23625;48.784;9.336;2023-03-01T00:29:04;34.35;;;14.05;;
37785;SDS011;23625;48.784;9.336;2023-03-01T00:31:31;36.95;;;13.68;;
37785;SDS011;23625;48.784;9.336;2023-03-01T00:33:59;28.60;;;11.98;;
37785;SDS011;23625;48.784;9.336;2023-03-01T00:36:27;30.63;;;12.23;;
37785;SDS011;23625;48.784;9.336;2023-03-01T00:38:55;27.90;;;12.70;;
37785;SDS011;23625;48.784;9.336;2023-03-01T00:41:21;33.45;;;13.38;;
37785;SDS011;23625;48.784;9.336;2023-03-01T00:43:48;41.58;;;14.27;;
37785;SDS011;23625;48.784;9.336;2023-03-01T00:46:18;36.95;;;13.95;;
37785;SDS011;23625;48.784;9.336;2023-03-01T00:48:46;32.95;;;12.38;;
37785;SDS011;23625;48.784;9.336;2023-03-01T00:51:15;29.90;;;12.07;;
37785;SDS011;23625;48.784;9.336;2023-03-01T00:53:42;35.55;;;13.60;;
37785;SDS011;23625;48.784;9.336;2023-03-01T00:56:09;34.40;;;14.20;;
37785;SDS011;23625;48.784;9.336;2023-03-01T00:58:35;36.13;;;13.65;;
37785;SDS011;23625;48.784;9.336;2023-03-01T01:01:09;33.72;;;13.68;;
37785;SDS011;23625;48.784;9.336;2023-03-01T01:03:56;37.30;;;15.32;;
37785;SDS011;23625;48.784;9.336;2023-03-01T01:06:28;41.47;;;14.55;;
37785;SDS011;23625;48.784;9.336;2023-03-01T01:08:56;37.13;;;14.05;;
37785;SDS011;23625;48.784;9.336;2023-03-01T01:11:22;36.42;;;13.52;;
37785;SDS011;23625;48.784;9.336;2023-03-01T01:13:51;34.65;;;14.07;;
37785;SDS011;23625;48.784;9.336;2023-03-01T01:16:19;29.13;;;12.57;;
37785;SDS011;23625;48.784;9.336;2023-03-01T01:18:46;37.05;;;14.68;;
37785;SDS011;23625;48.784;9.336;2023-03-01T01:21:13;34.05;;;13.88;;
37785;SDS011;23625;48.784;9.336;2023-03-01T01:23:42;32.95;;;12.85;;
37785;SDS011;23625;48.784;9.336;2023-03-01T01:26:15;39.28;;;14.65;;
37785;SDS011;23625;48.784;9.336;2023-03-01T01:28:49;36.50;;;13.80;;
37785;SDS011;23625;48.784;9.336;2023-03-01T01:31:16;35.17;;;14.30;;
37785;SDS011;23625;48.784;9.336;2023-03-01T01:33:42;39.17;;;14.20;;
37785;SDS011;23625;48.784;9.336;2023-03-01T01:36:08;38.47;;;14.68;;
37785;SDS011;23625;48.784;9.336;2023-03-01T01:38:34;38.58;;;14.65;;
37785;SDS011;23625;48.784;9.336;2023-03-01T01:41:01;39.92;;;14.45;;
37785;SDS011;23625;48.784;9.336;2023-03-01T01:45:57;32.20;;;14.05;;
37785;SDS011;23625;48.784;9.336;2023-03-01T01:48:32;39.97;;;14.47;;
37785;SDS011;23625;48.784;9.336;2023-03-01T01:51:05;35.67;;;15.05;;
37785;SDS011;23625;48.784;9.336;2023-03-01T01:53:34;39.13;;;14.07;;
37785;SDS011;23625;48.784;9.336;2023-03-01T01:56:01;33.63;;;14.43;;
37785;SDS011;23625;48.784;9.336;2023-03-01T01:58:28;63.20;;;19.83;;
37785;SDS011;23625;48.784;9.336;2023-03-01T02:00:55;38.10;;;14.98;;
37785;SDS011;23625;48.784;9.336;2023-03-01T02:03:25;37.83;;;15.27;;
37785;SDS011;23625;48.784;9.336;2023-03-01T02:08:31;39.90;;;15.05;;
37785;SDS011;23625;48.784;9.336;2023-03-01T02:11:00;35.75;;;14.27;;
37785;SDS011;23625;48.784;9.336;2023-03-01T02:13:29;36.85;;;15.32;;
37785;SDS011;23625;48.784;9.336;2023-03-01T02:15:56;42.25;;;15.57;;
37785;SDS011;23625;48.784;9.336;2023-03-01T02:18:22;40.92;;;15.27;;
37785;SDS011;23625;48.784;9.336;2023-03-01T02:23:24;36.70;;;14.88;;
37785;SDS011;23625;48.784;9.336;2023-03-01T02:26:10;35.83;;;15.43;;
37785;SDS011;23625;48.784;9.336;2023-03-01T02:28:43;40.72;;;14.35;;
37785;SDS011;23625;48.784;9.336;2023-03-01T02:31:10;43.50;;;15.60;;
37785;SDS011;23625;48.784;9.336;2023-03-01T02:33:57;38.10;;;15.57;;
37785;SDS011;23625;48.784;9.336;2023-03-01T02:36:28;37.72;;;14.90;;
37785;SDS011;23625;48.784;9.336;2023-03-01T02:38:56;38.33;;;15.25;;
37785;SDS011;23625;48.784;9.336;2023-03-01T02:41:23;34.58;;;15.55;;
37785;SDS011;23625;48.784;9.336;2023-03-01T02:43:51;42.97;;;16.30;;
37785;SDS011;23625;48.784;9.336;2023-03-01T02:46:18;42.70;;;16.15;;
37785;SDS011;23625;48.784;9.336;2023-03-01T02:48:49;36.58;;;15.32;;
37785;SDS011;23625;48.784;9.336;2023-03-01T02:54:16;36.88;;;13.43;;
37785;SDS011;23625;48.784;9.336;2023-03-01T02:56:49;35.63;;;15.35;;
37785;SDS011;23625;48.784;9.336;2023-03-01T02:59:17;36.97;;;15.73;;
37785;SDS011;23625;48.784;9.336;2023-03-01T03:01:45;39.90;;;15.43;;
37785;SDS011;23625;48.784;9.336;2023-03-01T03:04:13;41.25;;;16.33;;
37785;SDS011;23625;48.784;9.336;2023-03-01T03:06:49;34.70;;;14.13;;
37785;SDS011;23625;48.784;9.336;2023-03-01T03:09:16;38.35;;;15.77;;
37785;SDS011;23625;48.784;9.336;2023-03-01T03:11:43;35.67;;;14.15;;
37785;SDS011;23625;48.784;9.336;2023-03-01T03:14:12;38.25;;;15.63;;
37785;SDS011;23625;48.784;9.336;2023-03-01T03:16:40;37.53;;;16.33;;
37785;SDS011;23625;48.784;9.336;2023-03-01T03:19:07;37.40;;;15.50;;
37785;SDS011;23625;48.784;9.336;2023-03-01T03:21:33;38.38;;;15.57;;
37785;SDS011;23625;48.784;9.336;2023-03-01T03:23:58;37.40;;;15.15;;
37785;SDS011;23625;48.784;9.336;2023-03-01T03:26:24;41.42;;;15.52;;
37785;SDS011;23625;48.784;9.336;2023-03-01T03:28:50;44.00;;;18.45;;
37785;SDS011;23625;48.784;9.336;2023-03-01T03:31:16;39.80;;;16.25;;
37785;SDS011;23625;48.784;9.336;2023-03-01T03:33:41;35.55;;;15.25;;
37785;SDS011;23625;48.784;9.336;2023-03-01T03:36:07;37.83;;;15.85;;
37785;SDS011;23625;48.784;9.336;2023-03-01T03:38:37;37.92;;;15.88;;
37785;SDS011;23625;48.784;9.336;2023-03-01T03:41:05;42.80;;;16.30;;
37785;SDS011;23625;48.784;9.336;2023-03-01T03:43:33;44.58;;;16.45;;
37785;SDS011;23625;48.784;9.336;2023-03-01T03:46:01;43.33;;;16.45;;
37785;SDS011;23625;48.784;9.336;2023-03-01T03:48:31;46.88;;;17.27;;
37785;SDS011;23625;48.784;9.336;2023-03-01T03:51:00;37.97;;;15.35;;
37785;SDS011;23625;48.784;9.336;2023-03-01T03:53:27;39.80;;;15.23;;
37785;SDS011;23625;48.784;9.336;2023-03-01T03:55:53;40.08;;;15.77;;
37785;SDS011;23625;48.784;9.336;2023-03-01T03:58:20;41.83;;;16.27;;
37785;SDS011;23625;48.784;9.336;2023-03-01T04:00:48;42.90;;;17.00;;
37785;SDS011;23625;48.784;9.336;2023-03-01T04:03:16;38.58;;;15.93;;
37785;SDS011;23625;48.784;9.336;2023-03-01T04:05:43;44.20;;;17.02;;
37785;SDS011;23625;48.784;9.336;2023-03-01T04:08:10;38.85;;;15.48;;
37785;SDS011;23625;48.784;9.336;2023-03-01T04:10:37;37.25;;;16.00;;
37785;SDS011;23625;48.784;9.336;2023-03-01T04:13:09;41.97;;;16.02;;
37785;SDS011;23625;48.784;9.336;2023-03-01T04:15:37;37.30;;;15.63;;
37785;SDS011;23625;48.784;9.336;2023-03-01T04:18:03;36.85;;;16.20;;
37785;SDS011;23625;48.784;9.336;2023-03-01T04:20:31;44.95;;;17.17;;
37785;SDS011;23625;48.784;9.336;2023-03-01T04:23:09;47.63;;;18.35;;
37785;SDS011;23625;48.784;9.336;2023-03-01T04:28:29;45.97;;;17.40;;
37785;SDS011;23625;48.784;9.336;2023-03-01T04:31:04;52.30;;;18.75;;
37785;SDS011;23625;48.784;9.336;2023-03-01T04:33:38;46.85;;;19.05;;
37785;SDS011;23625;48.784;9.336;2023-03-01T04:38:34;51.10;;;17.08;;
37785;SDS011;23625;48.784;9.336;2023-03-01T04:41:02;37.88;;;15.75;;
37785;SDS011;23625;48.784;9.336;2023-03-01T04:43:32;47.15;;;17.77;;
37785;SDS011;23625;48.784;9.336;2023-03-01T04:46:02;45.10;;;19.08;;
37785;SDS011;23625;48.784;9.336;2023-03-01T04:48:30;57.95;;;19.00;;
37785;SDS011;23625;48.784;9.336;2023-03-01T04:50:56;49.28;;;19.42;;
37785;SDS011;23625;48.784;9.336;2023-03-01T04:53:23;40.58;;;15.68;;
37785;SDS011;23625;48.784;9.336;2023-03-01T04:55:49;38.22;;;16.50;;
37785;SDS011;23625;48.784;9.336;2023-03-01T04:58:15;39.63;;;16.60;;
37785;SDS011;23625;48.784;9.336;2023-03-01T05:00:41;42.13;;;17.73;;
37785;SDS011;23625;48.784;9.336;2023-03-01T05:03:07;51.30;;;19.52;;
37785;SDS011;23625;48.784;9.336;2023-03-01T05:05:34;47.17;;;17.50;;
37785;SDS011;23625;48.784;9.336;2023-03-01T05:08:03;44.22;;;17.83;;
37785;SDS011;23625;48.784;9.336;2023-03-01T05:10:31;47.60;;;16.83;;
37785;SDS011;23625;48.784;9.336;2023-03-01T05:12:59;39.55;;;16.60;;
37785;SDS011;23625;48.784;9.336;2023-03-01T05:15:26;52.53;;;20.35;;
37785;SDS011;23625;48.784;9.336;2023-03-01T05:17:54;61.60;;;21.83;;
37785;SDS011;23625;48.784;9.336;2023-03-01T05:20:23;64.15;;;22.67;;
37785;SDS011;23625;48.784;9.336;2023-03-01T05:22:49;56.25;;;21.33;;
37785;SDS011;23625;48.784;9.336;2023-03-01T05:25:16;56.00;;;21.75;;
37785;SDS011;23625;48.784;9.336;2023-03-01T05:27:42;53.88;;;21.42;;
37785;SDS011;23625;48.784;9.336;2023-03-01T05:30:08;45.55;;;18.80;;
37785;SDS011;23625;48.784;9.336;2023-03-01T05:32:41;39.85;;;17.65;;
37785;SDS011;23625;48.784;9.336;2023-03-01T05:35:09;48.42;;;17.83;;
37785;SDS011;23625;48.784;9.336;2023-03-01T05:37:38;56.90;;;19.80;;
37785;SDS011;23625;48.784;9.336;2023-03-01T05:40:05;50.53;;;21.38;;
37785;SDS011;23625;48.784;9.336;2023-03-01T05:42:40;50.05;;;20.50;;
37785;SDS011;23625;48.784;9.336;2023-03-01T05:45:12;44.58;;;19.77;;
37785;SDS011;23625;48.784;9.336;2023-03-01T05:47:40;55.35;;;21.48;;
37785;SDS011;23625;48.784;9.336;2023-03-01T05:50:10;54.13;;;21.20;;
37785;SDS011;23625;48.784;9.336;2023-03-01T05:52:37;58.22;;;22.45;;
37785;SDS011;23625;48.784;9.336;2023-03-01T05:55:03;82.85;;;32.70;;
37785;SDS011;23625;48.784;9.336;2023-03-01T05:57:29;75.93;;;27.63;;
37785;SDS011;23625;48.784;9.336;2023-03-01T05:59:55;52.17;;;22.10;;
37785;SDS011;23625;48.784;9.336;2023-03-01T06:02:20;50.35;;;20.60;;
37785;SDS011;23625;48.784;9.336;2023-03-01T06:04:46;49.00;;;19.08;;
37785;SDS011;23625;48.784;9.336;2023-03-01T06:07:11;48.67;;;18.85;;
37785;SDS011;23625;48.784;9.336;2023-03-01T06:09:37;65.18;;;24.77;;
37785;SDS011;23625;48.784;9.336;2023-03-01T06:12:03;64.55;;;23.58;;
37785;SDS011;23625;48.784;9.336;2023-03-01T06:14:28;56.88;;;21.55;;
37785;SDS011;23625;48.784;9.336;2023-03-01T06:16:54;48.72;;;19.40;;
37785;SDS011;23625;48.784;9.336;2023-03-01T06:19:19;45.95;;;19.25;;
37785;SDS011;23625;48.784;9.336;2023-03-01T06:21:45;43.22;;;17.67;;
37785;SDS011;23625;48.784;9.336;2023-03-01T06:24:10;56.13;;;21.38;;
37785;SDS011;23625;48.784;9.336;2023-03-01T06:26:36;50.28;;;19.45;;
37785;SDS011;23625;48.784;9.336;2023-03-01T06:29:01;53.88;;;22.00;;
37785;SDS011;23625;48.784;9.336;2023-03-01T06:31:27;58.40;;;22.67;;
37785;SDS011;23625;48.784;9.336;2023-03-01T06:33:53;69.47;;;24.92;;
37785;SDS011;23625;48.784;9.336;2023-03-01T06:36:19;58.13;;;22.40;;
37785;SDS011;23625;48.784;9.336;2023-03-01T06:38:46;65.97;;;24.88;;
37785;SDS011;23625;48.784;9.336;2023-03-01T06:41:11;100.05;;;29.13;;
37785;SDS011;23625;48.784;9.336;2023-03-01T06:43:37;85.40;;;26.45;;
37785;SDS011;23625;48.784;9.336;2023-03-01T06:46:05;132.27;;;39.97;;
37785;SDS011;23625;48.784;9.336;2023-03-01T06:48:32;143.27;;;41.88;;
37785;SDS011;23625;48.784;9.336;2023-03-01T06:50:58;153.38;;;46.30;;
37785;SDS011;23625;48.784;9.336;2023-03-01T06:53:26;81.90;;;27.73;;
37785;SDS011;23625;48.784;9.336;2023-03-01T06:55:55;72.32;;;24.88;;
37785;SDS011;23625;48.784;9.336;2023-03-01T06:58:21;53.97;;;21.23;;
37785;SDS011;23625;48.784;9.336;2023-03-01T07:00:47;56.05;;;21.75;;
37785;SDS011;23625;48.784;9.336;2023-03-01T07:03:12;47.90;;;20.25;;
37785;SDS011;23625;48.784;9.336;2023-03-01T07:05:38;47.33;;;20.10;;
37785;SDS011;23625;48.784;9.336;2023-03-01T07:08:03;132.63;;;41.42;;
37785;SDS011;23625;48.784;9.336;2023-03-01T07:10:29;81.53;;;33.13;;
37785;SDS011;23625;48.784;9.336;2023-03-01T07:12:56;59.83;;;25.75;;
37785;SDS011;23625;48.784;9.336;2023-03-01T07:15:22;60.17;;;22.77;;
37785;SDS011;23625;48.784;9.336;2023-03-01T07:17:48;57.28;;;22.38;;
37785;SDS011;23625;48.784;9.336;2023-03-01T07:20:15;53.25;;;19.88;;
37785;SDS011;23625;48.784;9.336;2023-03-01T07:22:42;61.33;;;22.00;;
37785;SDS011;23625;48.784;9.336;2023-03-01T07:25:08;55.78;;;21.52;;
37785;SDS011;23625;48.784;9.336;2023-03-01T07:27:35;59.08;;;22.58;;
37785;SDS011;23625;48.784;9.336;2023-03-01T07:30:01;61.70;;;23.42;;
37785;SDS011;23625;48.784;9.336;2023-03-01T07:32:27;53.47;;;22.15;;
37785;SDS011;23625;48.784;9.336;2023-03-01T07:34:53;57.00;;;21.65;;
37785;SDS011;23625;48.784;9.336;2023-03-01T07:37:18;58.50;;;22.17;;
37785;SDS011;23625;48.784;9.336;2023-03-01T07:39:44;49.70;;;20.88;;
37785;SDS011;23625;48.784;9.336;2023-03-01T07:42:10;53.38;;;20.63;;
37785;SDS011;23625;48.784;9.336;2023-03-01T07:44:35;50.67;;;20.48;;
37785;SDS011;23625;48.784;9.336;2023-03-01T07:47:01;58.47;;;23.08;;
37785;SDS011;23625;48.784;9.336;2023-03-01T07:49:27;52.08;;;22.27;;
37785;SDS011;23625;48.784;9.336;2023-03-01T07:51:53;60.88;;;23.20;;
37785;SDS011;23625;48.784;9.336;2023-03-01T07:54:19;67.05;;;23.75;;
37785;SDS011;23625;48.784;9.336;2023-03-01T07:56:44;64.35;;;23.95;;
37785;SDS011;23625;48.784;9.336;2023-03-01T07:59:10;61.53;;;23.25;;
37785;SDS011;23625;48.784;9.336;2023-03-01T08:01:35;65.03;;;27.08;;
37785;SDS011;23625;48.784;9.336;2023-03-01T08:04:01;54.75;;;21.70;;
37785;SDS011;23625;48.784;9.336;2023-03-01T08:06:27;73.65;;;24.98;;
37785;SDS011;23625;48.784;9.336;2023-03-01T08:08:52;63.45;;;22.48;;
37785;SDS011;23625;48.784;9.336;2023-03-01T08:11:20;54.20;;;20.23;;
37785;SDS011;23625;48.784;9.336;2023-03-01T08:13:47;54.03;;;22.25;;
37785;SDS011;23625;48.784;9.336;2023-03-01T08:16:13;50.15;;;21.05;;
37785;SDS011;23625;48.784;9.336;2023-03-01T08:18:40;48.38;;;20.10;;
37785;SDS011;23625;48.784;9.336;2023-03-01T08:21:07;55.45;;;20.80;;
37785;SDS011;23625;48.784;9.336;2023-03-01T08:23:35;54.92;;;21.50;;
37785;SDS011;23625;48.784;9.336;2023-03-01T08:28:31;45.28;;;20.20;;
37785;SDS011;23625;48.784;9.336;2023-03-01T08:30:57;48.00;;;20.75;;
37785;SDS011;23625;48.784;9.336;2023-03-01T08:33:22;49.17;;;19.33;;
37785;SDS011;23625;48.784;9.336;2023-03-01T08:35:48;50.50;;;21.70;;
37785;SDS011;23625;48.784;9.336;2023-03-01T08:38:13;52.33;;;21.48;;
37785;SDS011;23625;48.784;9.336;2023-03-01T08:40:39;42.53;;;19.52;;
37785;SDS011;23625;48.784;9.336;2023-03-01T08:43:04;46.83;;;20.23;;
37785;SDS011;23625;48.784;9.336;2023-03-01T08:45:30;46.50;;;19.35;;
37785;SDS011;23625;48.784;9.336;2023-03-01T08:47:55;49.17;;;20.90;;
37785;SDS011;23625;48.784;9.336;2023-03-01T08:50:21;47.22;;;20.85;;
37785;SDS011;23625;48.784;9.336;2023-03-01T08:52:49;49.15;;;19.98;;
37785;SDS011;23625;48.784;9.336;2023-03-01T08:55:15;45.33;;;19.58;;
37785;SDS011;23625;48.784;9.336;2023-03-01T08:57:42;46.88;;;21.13;;
37785;SDS011;23625;48.784;9.336;2023-03-01T09:00:08;43.75;;;19.08;;
37785;SDS011;23625;48.784;9.336;2023-03-01T09:02:36;45.17;;;18.02;;
37785;SDS011;23625;48.784;9.336;2023-03-01T09:05:02;44.72;;;19.70;;
37785;SDS011;23625;48.784;9.336;2023-03-01T09:07:27;48.08;;;21.27;;
37785;SDS011;23625;48.784;9.336;2023-03-01T09:09:53;45.22;;;19.85;;
37785;SDS011;23625;48.784;9.336;2023-03-01T09:12:20;47.38;;;20.73;;
37785;SDS011;23625;48.784;9.336;2023-03-01T09:14:45;46.42;;;20.48;;
37785;SDS011;23625;48.784;9.336;2023-03-01T09:17:11;43.72;;;18.60;;
37785;SDS011;23625;48.784;9.336;2023-03-01T09:19:37;41.70;;;18.67;;
37785;SDS011;23625;48.784;9.336;2023-03-01T09:22:03;45.13;;;20.88;;
37785;SDS011;23625;48.784;9.336;2023-03-01T09:24:29;40.90;;;18.52;;
37785;SDS011;23625;48.784;9.336;2023-03-01T09:26:55;42.78;;;19.48;;
37785;SDS011;23625;48.784;9.336;2023-03-01T09:29:21;48.78;;;18.60;;
37785;SDS011;23625;48.784;9.336;2023-03-01T09:31:48;47.03;;;19.90;;
37785;SDS011;23625;48.784;9.336;2023-03-01T09:34:13;41.50;;;19.83;;
37785;SDS011;23625;48.784;9.336;2023-03-01T09:36:41;45.13;;;20.65;;
37785;SDS011;23625;48.784;9.336;2023-03-01T09:39:07;52.67;;;19.55;;
37785;SDS011;23625;48.784;9.336;2023-03-01T09:44:32;35.53;;;19.05;;
37785;SDS011;23625;48.784;9.336;2023-03-01T09:47:01;45.20;;;19.13;;
37785;SDS011;23625;48.784;9.336;2023-03-01T09:49:29;38.65;;;19.17;;
37785;SDS011;23625;48.784;9.336;2023-03-01T09:52:03;41.28;;;19.58;;
37785;SDS011;23625;48.784;9.336;2023-03-01T09:54:52;39.20;;;18.65;;
37785;SDS011;23625;48.784;9.336;2023-03-01T09:57:20;43.65;;;20.40;;
37785;SDS011;23625;48.784;9.336;2023-03-01T10:08:51;48.75;;;20.10;;
37785;SDS011;23625;48.784;9.336;2023-03-01T10:11:22;49.53;;;18.20;;
37785;SDS011;23625;48.784;9.336;2023-03-01T10:16:47;37.08;;;17.50;;
37785;SDS011;23625;48.784;9.336;2023-03-01T10:25:14;40.17;;;18.95;;
37785;SDS011;23625;48.784;9.336;2023-03-01T10:32:47;38.42;;;18.77;;
37785;SDS011;23625;48.784;9.336;2023-03-01T10:35:20;38.38;;;18.63;;
37785;SDS011;23625;48.784;9.336;2023-03-01T10:37:57;44.10;;;20.33;;
37785;SDS011;23625;48.784;9.336;2023-03-01T10:40:27;41.90;;;20.05;;
37785;SDS011;23625;48.784;9.336;2023-03-01T10:42:53;39.97;;;18.98;;
37785;SDS011;23625;48.784;9.336;2023-03-01T10:45:37;37.03;;;17.58;;
37785;SDS011;23625;48.784;9.336;2023-03-01T10:50:30;37.30;;;19.13;;
37785;SDS011;23625;48.784;9.336;2023-03-01T10:53:00;41.38;;;18.83;;
37785;SDS011;23625;48.784;9.336;2023-03-01T10:55:34;38.00;;;17.15;;
37785;SDS011;23625;48.784;9.336;2023-03-01T11:00:32;42.22;;;17.13;;
37785;SDS011;23625;48.784;9.336;2023-03-01T11:03:02;36.60;;;16.83;;
37785;SDS011;23625;48.784;9.336;2023-03-01T11:05:35;41.20;;;18.52;;
37785;SDS011;23625;48.784;9.336;2023-03-01T11:08:01;42.45;;;18.45;;
37785;SDS011;23625;48.784;9.336;2023-03-01T11:10:29;35.10;;;17.52;;
37785;SDS011;23625;48.784;9.336;2023-03-01T11:13:07;35.63;;;17.33;;
37785;SDS011;23625;48.784;9.336;2023-03-01T11:15:39;40.13;;;17.75;;
37785;SDS011;23625;48.784;9.336;2023-03-01T11:18:04;35.72;;;17.65;;
37785;SDS011;23625;48.784;9.336;2023-03-01T11:20:45;35.33;;;17.38;;
37785;SDS011;23625;48.784;9.336;2023-03-01T11:23:12;37.53;;;18.50;;
37785;SDS011;23625;48.784;9.336;2023-03-01T11:25:40;41.45;;;18.60;;
37785;SDS011;23625;48.784;9.336;2023-03-01T11:28:10;37.22;;;18.45;;
37785;SDS011;23625;48.784;9.336;2023-03-01T11:30:57;33.28;;;16.45;;
37785;SDS011;23625;48.784;9.336;2023-03-01T11:39:04;34.78;;;16.65;;
37785;SDS011;23625;48.784;9.336;2023-03-01T11:41:41;33.05;;;16.65;;
37785;SDS011;23625;48.784;9.336;2023-03-01T11:46:48;35.80;;;17.80;;
37785;SDS011;23625;48.784;9.336;2023-03-01T11:52:20;38.28;;;17.75;;
37785;SDS011;23625;48.784;9.336;2023-03-01T11:55:23;36.38;;;18.60;;
37785;SDS011;23625;48.784;9.336;2023-03-01T11:58:18;29.83;;;15.20;;
37785;SDS011;23625;48.784;9.336;2023-03-01T12:09:47;36.33;;;17.33;;
37785;SDS011;23625;48.784;9.336;2023-03-01T12:24:13;34.50;;;16.60;;
37785;SDS011;23625;48.784;9.336;2023-03-01T12:41:04;34.58;;;17.73;;
37785;SDS011;23625;48.784;9.336;2023-03-01T12:49:13;33.43;;;17.23;;
37785;SDS011;23625;48.784;9.336;2023-03-01T12:51:49;35.03;;;17.15;;
37785;SDS011;23625;48.784;9.336;2023-03-01T12:54:31;35.85;;;16.80;;
37785;SDS011;23625;48.784;9.336;2023-03-01T12:57:05;36.05;;;17.55;;
37785;SDS011;23625;48.784;9.336;2023-03-01T13:02:47;30.92;;;14.98;;
37785;SDS011;23625;48.784;9.336;2023-03-01T13:08:08;29.65;;;15.95;;
37785;SDS011;23625;48.784;9.336;2023-03-01T13:10:51;34.58;;;16.83;;
37785;SDS011;23625;48.784;9.336;2023-03-01T13:13:27;32.97;;;15.25;;
37785;SDS011;23625;48.784;9.336;2023-03-01T13:15:54;31.00;;;14.63;;
37785;SDS011;23625;48.784;9.336;2023-03-01T13:20:55;27.65;;;14.48;;
37785;SDS011;23625;48.784;9.336;2023-03-01T13:33:49;27.88;;;15.00;;
37785;SDS011;23625;48.784;9.336;2023-03-01T13:49:47;29.65;;;14.20;;
37785;SDS011;23625;48.784;9.336;2023-03-01T13:52:23;28.05;;;15.18;;
37785;SDS011;23625;48.784;9.336;2023-03-01T13:55:43;28.55;;;15.18;;
37785;SDS011;23625;48.784;9.336;2023-03-01T13:58:19;26.98;;;13.93;;
37785;SDS011;23625;48.784;9.336;2023-03-01T14:00:46;36.00;;;17.05;;
37785;SDS011;23625;48.784;9.336;2023-03-01T14:03:16;32.25;;;15.98;;
37785;SDS011;23625;48.784;9.336;2023-03-01T14:05:44;33.00;;;16.92;;
37785;SDS011;23625;48.784;9.336;2023-03-01T14:08:33;36.15;;;16.75;;
37785;SDS011;23625;48.784;9.336;2023-03-01T14:21:45;33.35;;;15.90;;
37785;SDS011;23625;48.784;9.336;2023-03-01T14:24:18;35.88;;;16.77;;
37785;SDS011;23625;48.784;9.336;2023-03-01T14:26:45;29.70;;;16.23;;
37785;SDS011;23625;48.784;9.336;2023-03-01T14:29:27;31.70;;;16.83;;
37785;SDS011;23625;48.784;9.336;2023-03-01T14:32:11;33.17;;;17.17;;
37785;SDS011;23625;48.784;9.336;2023-03-01T14:34:48;34.33;;;18.55;;
37785;SDS011;23625;48.784;9.336;2023-03-01T14:37:19;31.98;;;18.50;;
37785;SDS011;23625;48.784;9.336;2023-03-01T14:39:57;34.60;;;16.92;;
37785;SDS011;23625;48.784;9.336;2023-03-01T14:42:24;32.45;;;17.13;;
37785;SDS011;23625;48.784;9.336;2023-03-01T14:44:57;35.95;;;17.25;;
37785;SDS011;23625;48.784;9.336;2023-03-01T14:47:26;34.35;;;16.30;;
37785;SDS011;23625;48.784;9.336;2023-03-01T14:50:02;34.90;;;17.05;;
37785;SDS011;23625;48.784;9.336;2023-03-01T14:52:40;35.85;;;16.98;;
37785;SDS011;23625;48.784;9.336;2023-03-01T14:55:15;42.33;;;19.98;;
37785;SDS011;23625;48.784;9.336;2023-03-01T14:57:43;48.22;;;18.88;;
37785;SDS011;23625;48.784;9.336;2023-03-01T15:00:13;31.25;;;16.65;;
37785;SDS011;23625;48.784;9.336;2023-03-01T15:02:45;31.27;;;16.10;;
37785;SDS011;23625;48.784;9.336;2023-03-01T15:05:14;31.42;;;14.52;;
37785;SDS011;23625;48.784;9.336;2023-03-01T15:07:43;30.30;;;15.70;;
37785;SDS011;23625;48.784;9.336;2023-03-01T15:10:24;52.45;;;17.95;;
37785;SDS011;23625;48.784;9.336;2023-03-01T15:12:54;30.92;;;16.02;;
37785;SDS011;23625;48.784;9.336;2023-03-01T15:15:31;32.20;;;15.85;;
37785;SDS011;23625;48.784;9.336;2023-03-01T15:17:59;31.10;;;16.08;;
37785;SDS011;23625;48.784;9.336;2023-03-01T15:20:28;40.97;;;15.68;;
37785;SDS011;23625;48.784;9.336;2023-03-01T15:22:56;35.25;;;17.27;;
37785;SDS011;23625;48.784;9.336;2023-03-01T15:25:23;37.45;;;17.10;;
37785;SDS011;23625;48.784;9.336;2023-03-01T15:27:52;38.42;;;17.63;;
37785;SDS011;23625;48.784;9.336;2023-03-01T15:30:26;34.75;;;17.30;;
37785;SDS011;23625;48.784;9.336;2023-03-01T15:35:48;40.25;;;17.83;;
37785;SDS011;23625;48.784;9.336;2023-03-01T15:38:23;35.80;;;17.52;;
37785;SDS011;23625;48.784;9.336;2023-03-01T15:41:26;33.05;;;17.35;;
37785;SDS011;23625;48.784;9.336;2023-03-01T15:43:57;36.95;;;17.77;;
37785;SDS011;23625;48.784;9.336;2023-03-01T15:46:33;40.40;;;18.13;;
37785;SDS011;23625;48.784;9.336;2023-03-01T15:49:18;41.55;;;17.65;;
37785;SDS011;23625;48.784;9.336;2023-03-01T15:52:09;46.40;;;19.23;;
37785;SDS011;23625;48.784;9.336;2023-03-01T15:54:39;40.35;;;17.88;;
37785;SDS011;23625;48.784;9.336;2023-03-01T15:57:08;46.33;;;18.38;;
37785;SDS011;23625;48.784;9.336;2023-03-01T15:59:39;38.60;;;19.58;;
37785;SDS011;23625;48.784;9.336;2023-03-01T16:02:08;37.72;;;18.15;;
37785;SDS011;23625;48.784;9.336;2023-03-01T16:04:37;47.25;;;23.15;;
37785;SDS011;23625;48.784;9.336;2023-03-01T16:07:04;41.45;;;19.27;;
37785;SDS011;23625;48.784;9.336;2023-03-01T16:09:30;38.45;;;18.75;;
37785;SDS011;23625;48.784;9.336;2023-03-01T16:11:56;40.08;;;19.73;;
37785;SDS011;23625;48.784;9.336;2023-03-01T16:14:22;43.10;;;21.63;;
37785;SDS011;23625;48.784;9.336;2023-03-01T16:16:48;44.10;;;23.20;;
37785;SDS011;23625;48.784;9.336;2023-03-01T16:19:14;44.95;;;19.63;;
37785;SDS011;23625;48.784;9.336;2023-03-01T16:21:40;43.88;;;19.80;;
37785;SDS011;23625;48.784;9.336;2023-03-01T16:24:07;46.47;;;20.08;;
37785;SDS011;23625;48.784;9.336;2023-03-01T16:26:34;37.65;;;18.65;;
37785;SDS011;23625;48.784;9.336;2023-03-01T16:29:01;45.47;;;20.15;;
37785;SDS011;23625;48.784;9.336;2023-03-01T16:31:26;43.72;;;19.73;;
37785;SDS011;23625;48.784;9.336;2023-03-01T16:33:54;59.38;;;24.23;;
37785;SDS011;23625;48.784;9.336;2023-03-01T16:36:20;87.07;;;42.65;;
37785;SDS011;23625;48.784;9.336;2023-03-01T16:38:48;51.50;;;26.00;;
37785;SDS011;23625;48.784;9.336;2023-03-01T16:41:15;51.08;;;22.85;;
37785;SDS011;23625;48.784;9.336;2023-03-01T16:43:43;41.40;;;19.33;;
37785;SDS011;23625;48.784;9.336;2023-03-01T16:46:22;55.92;;;26.27;;
37785;SDS011;23625;48.784;9.336;2023-03-01T16:48:50;61.15;;;24.30;;
37785;SDS011;23625;48.784;9.336;2023-03-01T16:51:16;50.85;;;21.55;;
37785;SDS011;23625;48.784;9.336;2023-03-01T16:53:43;51.08;;;21.40;;
37785;SDS011;23625;48.784;9.336;2023-03-01T16:56:10;58.00;;;26.33;;
37785;SDS011;23625;48.784;9.336;2023-03-01T16:58:37;51.53;;;22.85;;
37785;SDS011;23625;48.784;9.336;2023-03-01T17:01:04;62.50;;;27.10;;